Gay, Michigan
Current Conditions -  °F | °C
As of 3:53 PM on Friday 28 Nov 2014 (Local Time) from KCMX Reporting Station
Overcast Overcast  
Wind Chill: 16°   Ceiling: 2900
Heat Index: 16°   Visibility: 10mi
Dew Point:   Wind: 3mph
Humidity: 59%   Direction: 130°SE
Pressure: 29.96"   Gusts: NA
Location:  47.115°N, 88.3635°W
Report Text: KCMX 282053Z AUTO 13003KT 10SM OVC029 M09/M16 A2996 RMK AO2 SLP170 T10891156 56020
Loading
Personal Weather Stations






























Interactive Weather Map New forecast layout! Learn more

10-Day Weather Forecast

Advertisements
Track Severe Weather on mobile